createdAt,value
2022-10-18T00:01:16.863Z,18.41
2022-10-18T00:05:18.538Z,18.44
2022-10-18T00:09:20.191Z,18.44
2022-10-18T00:13:22.262Z,18.41
2022-10-18T00:17:24.749Z,18.43
2022-10-18T00:21:27.024Z,18.41
2022-10-18T00:25:28.851Z,18.41
2022-10-18T00:29:30.450Z,18.40
2022-10-18T00:33:32.264Z,18.40
2022-10-18T00:37:34.922Z,18.29
2022-10-18T00:41:38.046Z,18.24
2022-10-18T00:45:41.024Z,18.21
2022-10-18T00:49:51.744Z,18.21
2022-10-18T00:53:53.382Z,18.18
2022-10-18T00:57:55.673Z,18.17
2022-10-18T01:01:57.343Z,18.15
2022-10-18T01:05:59.010Z,18.13
2022-10-18T01:10:03.448Z,18.13
2022-10-18T01:14:36.459Z,18.14
2022-10-18T01:18:43.906Z,18.12
2022-10-18T01:22:52.732Z,18.12
2022-10-18T01:27:12.282Z,18.08
2022-10-18T01:31:20.754Z,18.09
2022-10-18T01:35:32.051Z,18.10
2022-10-18T01:39:38.436Z,18.09
2022-10-18T01:43:40.725Z,18.07
2022-10-18T01:47:45.600Z,17.98
2022-10-18T01:51:47.236Z,17.91
2022-10-18T01:56:01.566Z,17.82
2022-10-18T02:00:12.789Z,17.71
2022-10-18T02:04:30.135Z,17.58
2022-10-18T02:08:57.909Z,17.41
2022-10-18T02:13:00.719Z,17.27
2022-10-18T02:17:05.770Z,17.14
2022-10-18T02:21:11.127Z,17.00
2022-10-18T02:25:18.538Z,16.86
2022-10-18T02:29:20.218Z,16.76
2022-10-18T02:33:27.689Z,16.73
2022-10-18T02:37:37.877Z,16.75
2022-10-18T02:41:39.483Z,16.82
2022-10-18T02:45:41.458Z,16.89
2022-10-18T02:49:43.011Z,16.94
2022-10-18T02:53:44.745Z,16.96
2022-10-18T02:57:46.279Z,16.95
2022-10-18T03:01:48.124Z,16.96
2022-10-18T03:05:50.755Z,17.01
2022-10-18T03:09:52.376Z,17.06
2022-10-18T03:13:54.026Z,17.11
2022-10-18T03:17:55.618Z,17.15
2022-10-18T03:21:57.222Z,17.14
2022-10-18T03:25:58.829Z,17.04
2022-10-18T03:30:01.054Z,17.02
2022-10-18T03:34:02.810Z,17.05
2022-10-18T03:38:04.556Z,17.01
2022-10-18T03:42:06.159Z,17.02
2022-10-18T03:46:07.944Z,17.03
2022-10-18T03:50:09.863Z,17.06
2022-10-18T03:54:11.385Z,17.06
2022-10-18T03:58:12.945Z,17.12
2022-10-18T04:02:14.729Z,17.16
2022-10-18T04:06:16.376Z,17.18
2022-10-18T04:10:18.749Z,17.19
2022-10-18T04:14:21.477Z,17.20
2022-10-18T04:18:23.028Z,17.25
2022-10-18T04:22:24.663Z,17.24
2022-10-18T04:26:26.328Z,17.24
2022-10-18T04:30:27.891Z,17.16
2022-10-18T04:34:29.663Z,17.13
2022-10-18T04:38:31.320Z,17.13
2022-10-18T04:42:33.256Z,17.16
2022-10-18T04:46:35.423Z,17.20
2022-10-18T04:50:37.080Z,17.23
2022-10-18T04:54:48.765Z,17.24
2022-10-18T04:58:50.375Z,17.25
2022-10-18T05:02:57.146Z,17.22
2022-10-18T05:06:58.703Z,17.22
2022-10-18T05:11:00.745Z,17.25
2022-10-18T05:15:02.761Z,17.26
2022-10-18T05:19:05.722Z,17.25
2022-10-18T05:23:10.904Z,17.26
2022-10-18T05:27:12.480Z,17.24
2022-10-18T05:31:14.180Z,17.22
2022-10-18T05:35:15.855Z,17.21
2022-10-18T05:39:17.462Z,17.21
2022-10-18T05:43:19.055Z,17.19
2022-10-18T05:47:20.749Z,17.18
2022-10-18T05:51:23.931Z,17.17
2022-10-18T05:55:25.508Z,17.12
2022-10-18T05:59:27.105Z,17.08
2022-10-18T06:03:30.874Z,17.06
2022-10-18T06:07:33.170Z,17.08
2022-10-18T06:11:36.374Z,17.15
2022-10-18T06:15:37.844Z,17.13
2022-10-18T06:19:39.455Z,17.15
2022-10-18T06:23:41.142Z,17.19
2022-10-18T06:27:42.694Z,17.20
2022-10-18T06:31:44.250Z,17.22
2022-10-18T06:35:57.949Z,17.27
2022-10-18T06:39:59.564Z,17.31
2022-10-18T06:44:07.231Z,17.35
2022-10-18T06:48:08.905Z,17.41
2022-10-18T06:52:10.522Z,17.48
2022-10-18T06:56:13.532Z,17.47
2022-10-18T07:00:15.364Z,17.43
2022-10-18T07:04:17.101Z,17.54
2022-10-18T07:08:18.854Z,17.67
2022-10-18T07:12:20.485Z,17.76
2022-10-18T07:16:22.206Z,17.80
2022-10-18T07:20:23.873Z,17.89
2022-10-18T07:24:25.515Z,17.93
2022-10-18T07:28:27.841Z,18.01
2022-10-18T07:32:29.399Z,18.09
2022-10-18T07:36:31.021Z,18.22
2022-10-18T07:40:32.631Z,18.37
2022-10-18T07:44:34.215Z,18.45
2022-10-18T07:48:35.785Z,18.58
2022-10-18T07:52:37.359Z,18.73
2022-10-18T07:56:38.915Z,18.89
2022-10-18T08:00:40.659Z,19.04
2022-10-18T08:04:42.188Z,19.15
2022-10-18T08:08:44.544Z,19.23
2022-10-18T08:12:46.392Z,19.15
2022-10-18T08:16:47.951Z,19.04
2022-10-18T08:20:49.556Z,19.02
2022-10-18T08:24:51.311Z,19.09
2022-10-18T08:29:17.427Z,19.20
2022-10-18T08:33:14.887Z,19.40
2022-10-18T08:37:16.915Z,19.72
2022-10-18T08:41:18.911Z,20.19
2022-10-18T08:45:37.454Z,20.40
2022-10-18T08:49:50.583Z,20.86
2022-10-18T08:54:02.835Z,21.07
2022-10-18T08:58:19.239Z,21.00
2022-10-18T09:02:40.081Z,20.90
2022-10-18T09:06:54.896Z,20.83
2022-10-18T09:11:06.887Z,20.71
2022-10-18T09:15:17.301Z,20.56
2022-10-18T09:19:43.942Z,20.52
2022-10-18T09:23:56.264Z,20.58
2022-10-18T09:28:13.920Z,20.67
2022-10-18T09:32:33.601Z,20.67
2022-10-18T09:36:38.735Z,20.64
2022-10-18T09:41:03.416Z,20.42
2022-10-18T09:45:26.763Z,20.31
2022-10-18T09:49:51.208Z,20.32
2022-10-18T09:54:09.064Z,20.38
2022-10-18T09:58:13.492Z,20.69
2022-10-18T10:02:23.634Z,21.03
2022-10-18T10:06:36.611Z,21.13
2022-10-18T10:10:40.616Z,21.05
2022-10-18T10:14:45.246Z,20.83
2022-10-18T10:18:53.587Z,20.56
2022-10-18T10:23:06.613Z,20.68
2022-10-18T10:27:18.033Z,20.92
2022-10-18T10:31:25.251Z,21.10
2022-10-18T10:40:18.173Z,21.30
2022-10-18T10:44:25.919Z,21.36
2022-10-18T10:48:33.275Z,21.44
2022-10-18T10:52:38.830Z,21.55
2022-10-18T10:57:02.820Z,21.69
2022-10-18T11:01:32.229Z,21.63
2022-10-18T11:05:43.352Z,21.74
2022-10-18T11:09:50.815Z,21.84
2022-10-18T11:14:20.959Z,21.92
2022-10-18T11:18:28.192Z,21.79
2022-10-18T11:22:36.293Z,21.66
2022-10-18T11:27:04.165Z,21.45
2022-10-18T11:31:31.385Z,21.14
2022-10-18T11:35:43.080Z,21.04
2022-10-18T11:39:50.902Z,20.77
2022-10-18T11:44:03.304Z,20.64
2022-10-18T11:48:28.571Z,20.64
2022-10-18T11:52:51.987Z,20.66
2022-10-18T11:57:31.880Z,20.67
2022-10-18T12:01:47.492Z,20.64
2022-10-18T12:05:51.040Z,20.48
2022-10-18T12:09:55.132Z,20.39
2022-10-18T12:14:00.622Z,20.83
2022-10-18T12:18:10.466Z,21.43
2022-10-18T12:22:43.110Z,21.72
2022-10-18T12:26:48.659Z,21.73
2022-10-18T12:31:05.290Z,21.78
2022-10-18T12:35:14.810Z,22.00
2022-10-18T12:39:33.464Z,22.08
2022-10-18T12:43:57.178Z,22.23
2022-10-18T12:48:06.694Z,22.29
2022-10-18T12:52:22.297Z,22.17
2022-10-18T12:56:30.185Z,22.18
2022-10-18T13:00:31.864Z,22.17
2022-10-18T13:04:34.918Z,22.15
2022-10-18T13:08:42.182Z,22.27
2022-10-18T13:12:43.789Z,22.53
2022-10-18T13:16:54.262Z,22.76
2022-10-18T13:21:08.232Z,23.08
2022-10-18T13:25:47.364Z,23.41
2022-10-18T13:30:01.208Z,23.37
2022-10-18T13:34:22.816Z,23.15
2022-10-18T13:38:32.806Z,22.83
2022-10-18T13:42:35.003Z,22.42
2022-10-18T13:46:36.805Z,22.15
2022-10-18T13:50:44.668Z,21.90
2022-10-18T13:55:28.057Z,21.72
2022-10-18T14:00:08.353Z,21.70
2022-10-18T14:04:37.992Z,21.71
2022-10-18T14:09:06.244Z,21.63
2022-10-18T14:13:21.592Z,21.48
2022-10-18T14:17:42.920Z,21.32
2022-10-18T14:21:53.396Z,21.14
2022-10-18T14:26:15.519Z,20.86
2022-10-18T14:30:20.483Z,20.65
2022-10-18T14:34:22.387Z,20.53
2022-10-18T14:38:24.631Z,20.41
2022-10-18T14:42:27.934Z,20.34
2022-10-18T14:46:31.806Z,20.31
2022-10-18T14:50:33.941Z,20.29
2022-10-18T14:54:38.444Z,20.29
2022-10-18T14:58:42.312Z,20.27
2022-10-18T15:02:43.973Z,20.23
2022-10-18T15:06:45.593Z,20.18
2022-10-18T15:10:48.287Z,20.16
2022-10-18T15:14:50.019Z,20.12
2022-10-18T15:19:15.821Z,20.11
2022-10-18T15:23:26.832Z,20.09
2022-10-18T15:27:35.474Z,20.06
2022-10-18T15:31:43.014Z,19.99
2022-10-18T15:35:44.720Z,19.92
2022-10-18T15:39:46.448Z,19.87
2022-10-18T15:43:48.136Z,19.81
2022-10-18T15:48:01.947Z,19.79
2022-10-18T15:52:04.068Z,19.75
2022-10-18T15:56:09.714Z,19.70
2022-10-18T16:00:19.945Z,19.63
2022-10-18T16:04:25.946Z,19.54
2022-10-18T16:08:37.226Z,19.45
2022-10-18T16:12:38.884Z,19.34
2022-10-18T16:16:42.005Z,19.21
2022-10-18T16:20:43.756Z,19.07
2022-10-18T16:24:45.371Z,18.95
2022-10-18T16:28:48.278Z,18.84
2022-10-18T16:32:53.068Z,18.71
2022-10-18T16:36:55.490Z,18.58
2022-10-18T16:40:57.725Z,18.46
2022-10-18T16:44:59.516Z,18.44
2022-10-18T16:49:01.824Z,18.39
2022-10-18T16:53:03.511Z,18.32
2022-10-18T16:57:05.213Z,18.25
2022-10-18T17:01:09.050Z,18.14
2022-10-18T17:05:10.870Z,18.06
2022-10-18T17:09:14.312Z,18.00
2022-10-18T17:13:16.730Z,17.96
2022-10-18T17:17:18.430Z,17.92
2022-10-18T17:21:20.240Z,17.84
2022-10-18T17:25:21.955Z,17.80
2022-10-18T17:29:23.578Z,17.76
2022-10-18T17:33:25.145Z,17.75
2022-10-18T17:37:26.969Z,17.76
2022-10-18T17:41:28.740Z,17.79
2022-10-18T17:45:30.511Z,17.77
2022-10-18T17:49:32.237Z,17.77
2022-10-18T17:53:34.929Z,17.77
2022-10-18T17:57:36.776Z,17.76
2022-10-18T18:01:39.221Z,17.76
2022-10-18T18:05:41.137Z,17.77
2022-10-18T18:09:42.888Z,17.77
2022-10-18T18:13:44.617Z,17.79
2022-10-18T18:17:56.835Z,17.78
2022-10-18T18:21:59.466Z,17.72
2022-10-18T18:26:01.131Z,17.60
2022-10-18T18:30:02.731Z,17.46
2022-10-18T18:34:10.591Z,17.33
2022-10-18T18:38:12.387Z,17.28
2022-10-18T18:42:14.013Z,17.31
2022-10-18T18:46:15.770Z,17.32
2022-10-18T18:50:17.360Z,17.27
2022-10-18T18:54:20.644Z,17.16
2022-10-18T18:58:22.323Z,17.05
2022-10-18T19:02:24.022Z,16.92
2022-10-18T19:06:30.438Z,16.78
2022-10-18T19:10:32.208Z,16.66
2022-10-18T19:14:33.972Z,16.55
2022-10-18T19:18:35.806Z,16.45
2022-10-18T19:22:38.517Z,16.33
2022-10-18T19:26:48.841Z,16.24
2022-10-18T19:30:50.724Z,16.15
2022-10-18T19:34:52.990Z,16.08
2022-10-18T19:38:54.791Z,16.03
2022-10-18T19:42:56.581Z,15.97
2022-10-18T19:47:00.460Z,15.89
2022-10-18T19:51:09.317Z,15.84
2022-10-18T19:55:11.404Z,15.80
2022-10-18T19:59:14.831Z,15.83
2022-10-18T20:03:16.504Z,15.81
2022-10-18T20:07:18.101Z,15.78
2022-10-18T20:11:22.748Z,15.70
2022-10-18T20:15:24.409Z,15.65
2022-10-18T20:19:26.079Z,15.60
2022-10-18T20:23:27.725Z,15.56
2022-10-18T20:27:30.827Z,15.53
2022-10-18T20:31:37.192Z,15.49
2022-10-18T20:35:38.732Z,15.46
2022-10-18T20:39:40.789Z,15.41
2022-10-18T20:43:43.387Z,15.37
2022-10-18T20:47:44.957Z,15.35
2022-10-18T20:51:46.751Z,15.35
2022-10-18T20:55:49.399Z,15.34
2022-10-18T20:59:50.994Z,15.31
2022-10-18T21:03:54.787Z,15.27
2022-10-18T21:07:57.233Z,15.24
2022-10-18T21:11:58.841Z,15.22
2022-10-18T21:16:01.735Z,15.20
2022-10-18T21:20:03.741Z,15.20
2022-10-18T21:24:07.814Z,15.20
2022-10-18T21:28:09.649Z,15.19
2022-10-18T21:32:11.386Z,15.17
2022-10-18T21:36:13.639Z,15.15
2022-10-18T21:40:15.660Z,15.14
2022-10-18T21:44:17.745Z,15.17
2022-10-18T21:48:19.402Z,15.20
2022-10-18T21:52:22.137Z,15.26
2022-10-18T21:56:34.713Z,15.32
2022-10-18T22:00:36.389Z,15.31
2022-10-18T22:04:40.611Z,15.27
2022-10-18T22:08:53.055Z,15.22
2022-10-18T22:12:54.741Z,15.19
2022-10-18T22:16:56.351Z,15.14
2022-10-18T22:21:01.509Z,15.10
2022-10-18T22:25:05.626Z,15.04
2022-10-18T22:29:14.641Z,15.01
2022-10-18T22:33:16.270Z,14.98
2022-10-18T22:37:17.871Z,14.98
2022-10-18T22:41:19.904Z,14.98
2022-10-18T22:45:21.540Z,14.96
2022-10-18T22:49:24.648Z,14.90
2022-10-18T22:53:26.304Z,14.84
2022-10-18T22:57:29.486Z,14.78
2022-10-18T23:01:31.095Z,14.71
2022-10-18T23:05:40.096Z,14.64
2022-10-18T23:09:41.673Z,14.56
2022-10-18T23:13:43.983Z,14.48
2022-10-18T23:17:45.554Z,14.44
2022-10-18T23:21:47.340Z,14.39
2022-10-18T23:25:51.694Z,14.31
2022-10-18T23:29:53.542Z,14.29
2022-10-18T23:33:57.944Z,14.29
2022-10-18T23:37:59.570Z,14.33
2022-10-18T23:42:01.324Z,14.42
2022-10-18T23:46:03.252Z,14.52
2022-10-18T23:50:05.347Z,14.63
2022-10-18T23:54:06.920Z,14.69
2022-10-18T23:58:08.588Z,14.74
